sensor_id;sensor_type;location;lat;lon;timestamp;temperature;humidity
18733;DHT22;9495;51.210;2.934;2023-03-19T00:00:41;10.30;99.90
18733;DHT22;9495;51.210;2.934;2023-03-19T00:03:09;10.40;99.90
18733;DHT22;9495;51.210;2.934;2023-03-19T00:05:38;10.50;99.90
18733;DHT22;9495;51.210;2.934;2023-03-19T00:08:07;10.40;99.90
18733;DHT22;9495;51.210;2.934;2023-03-19T00:10:37;10.50;99.90
18733;DHT22;9495;51.210;2.934;2023-03-19T00:13:06;10.40;99.90
18733;DHT22;9495;51.210;2.934;2023-03-19T00:15:37;10.40;99.90
18733;DHT22;9495;51.210;2.934;2023-03-19T00:18:06;10.30;99.90
18733;DHT22;9495;51.210;2.934;2023-03-19T00:20:34;10.30;99.90
18733;DHT22;9495;51.210;2.934;2023-03-19T00:23:03;10.40;99.90
18733;DHT22;9495;51.210;2.934;2023-03-19T00:25:32;10.30;99.90
18733;DHT22;9495;51.210;2.934;2023-03-19T00:28:01;10.20;99.90
18733;DHT22;9495;51.210;2.934;2023-03-19T00:30:29;10.30;99.90
18733;DHT22;9495;51.210;2.934;2023-03-19T00:32:59;10.40;99.90
18733;DHT22;9495;51.210;2.934;2023-03-19T00:35:28;10.60;99.90
18733;DHT22;9495;51.210;2.934;2023-03-19T00:37:57;10.70;99.90
18733;DHT22;9495;51.210;2.934;2023-03-19T00:40:26;10.50;99.90
18733;DHT22;9495;51.210;2.934;2023-03-19T00:42:54;10.40;99.90
18733;DHT22;9495;51.210;2.934;2023-03-19T00:45:22;10.40;99.90
18733;DHT22;9495;51.210;2.934;2023-03-19T00:47:51;10.30;99.90
18733;DHT22;9495;51.210;2.934;2023-03-19T00:50:21;10.30;99.90
18733;DHT22;9495;51.210;2.934;2023-03-19T00:52:51;10.30;99.90
18733;DHT22;9495;51.210;2.934;2023-03-19T00:55:19;10.40;99.90
18733;DHT22;9495;51.210;2.934;2023-03-19T00:57:48;10.60;99.90
18733;DHT22;9495;51.210;2.934;2023-03-19T01:00:17;10.50;99.90
18733;DHT22;9495;51.210;2.934;2023-03-19T01:02:45;10.50;99.90
18733;DHT22;9495;51.210;2.934;2023-03-19T01:05:14;10.50;99.90
18733;DHT22;9495;51.210;2.934;2023-03-19T01:07:43;10.60;99.90
18733;DHT22;9495;51.210;2.934;2023-03-19T01:10:12;10.70;99.90
18733;DHT22;9495;51.210;2.934;2023-03-19T01:12:40;10.70;99.90
18733;DHT22;9495;51.210;2.934;2023-03-19T01:15:09;10.60;99.90
18733;DHT22;9495;51.210;2.934;2023-03-19T01:17:38;10.80;99.90
18733;DHT22;9495;51.210;2.934;2023-03-19T01:20:07;10.70;99.90
18733;DHT22;9495;51.210;2.934;2023-03-19T01:22:39;10.60;99.90
18733;DHT22;9495;51.210;2.934;2023-03-19T01:25:11;10.40;99.90
18733;DHT22;9495;51.210;2.934;2023-03-19T01:27:40;10.40;99.90
18733;DHT22;9495;51.210;2.934;2023-03-19T01:30:09;10.40;99.90
18733;DHT22;9495;51.210;2.934;2023-03-19T01:32:38;10.50;99.90
18733;DHT22;9495;51.210;2.934;2023-03-19T01:35:07;10.80;99.90
18733;DHT22;9495;51.210;2.934;2023-03-19T01:37:36;10.90;99.90
18733;DHT22;9495;51.210;2.934;2023-03-19T01:40:05;10.60;99.90
18733;DHT22;9495;51.210;2.934;2023-03-19T01:42:50;10.80;99.90
18733;DHT22;9495;51.210;2.934;2023-03-19T01:45:34;10.60;99.90
18733;DHT22;9495;51.210;2.934;2023-03-19T01:48:03;10.60;99.90
18733;DHT22;9495;51.210;2.934;2023-03-19T01:50:38;11.00;99.90
18733;DHT22;9495;51.210;2.934;2023-03-19T01:53:08;11.10;99.90
18733;DHT22;9495;51.210;2.934;2023-03-19T01:55:39;10.90;99.90
18733;DHT22;9495;51.210;2.934;2023-03-19T01:58:09;10.60;99.90
18733;DHT22;9495;51.210;2.934;2023-03-19T02:00:37;10.60;99.90
18733;DHT22;9495;51.210;2.934;2023-03-19T02:03:06;10.60;99.90
18733;DHT22;9495;51.210;2.934;2023-03-19T02:05:36;10.60;99.90
18733;DHT22;9495;51.210;2.934;2023-03-19T02:08:08;10.70;99.90
18733;DHT22;9495;51.210;2.934;2023-03-19T02:10:39;10.60;99.90
18733;DHT22;9495;51.210;2.934;2023-03-19T02:13:09;10.60;99.90
18733;DHT22;9495;51.210;2.934;2023-03-19T02:15:38;10.50;99.90
18733;DHT22;9495;51.210;2.934;2023-03-19T02:18:07;10.40;99.90
18733;DHT22;9495;51.210;2.934;2023-03-19T02:20:54;10.70;99.90
18733;DHT22;9495;51.210;2.934;2023-03-19T02:24:00;11.50;99.90
18733;DHT22;9495;51.210;2.934;2023-03-19T02:26:31;11.20;99.90
18733;DHT22;9495;51.210;2.934;2023-03-19T02:29:00;10.90;99.90
18733;DHT22;9495;51.210;2.934;2023-03-19T02:31:30;10.80;99.90
18733;DHT22;9495;51.210;2.934;2023-03-19T02:34:00;10.80;99.90
18733;DHT22;9495;51.210;2.934;2023-03-19T02:36:32;11.70;99.90
18733;DHT22;9495;51.210;2.934;2023-03-19T02:39:04;11.50;99.90
18733;DHT22;9495;51.210;2.934;2023-03-19T02:41:36;11.40;99.90
18733;DHT22;9495;51.210;2.934;2023-03-19T02:44:06;11.30;99.90
18733;DHT22;9495;51.210;2.934;2023-03-19T02:46:35;11.60;99.90
18733;DHT22;9495;51.210;2.934;2023-03-19T02:49:04;11.50;99.90
18733;DHT22;9495;51.210;2.934;2023-03-19T02:51:32;11.50;99.90
18733;DHT22;9495;51.210;2.934;2023-03-19T02:54:01;11.20;99.90
18733;DHT22;9495;51.210;2.934;2023-03-19T02:56:29;11.40;99.90
18733;DHT22;9495;51.210;2.934;2023-03-19T02:58:59;11.30;99.90
18733;DHT22;9495;51.210;2.934;2023-03-19T03:01:27;11.20;99.90
18733;DHT22;9495;51.210;2.934;2023-03-19T03:03:56;11.40;99.90
18733;DHT22;9495;51.210;2.934;2023-03-19T03:06:25;11.30;99.90
18733;DHT22;9495;51.210;2.934;2023-03-19T03:08:53;11.40;99.90
18733;DHT22;9495;51.210;2.934;2023-03-19T03:11:22;11.10;99.90
18733;DHT22;9495;51.210;2.934;2023-03-19T03:13:51;11.30;99.90
18733;DHT22;9495;51.210;2.934;2023-03-19T03:16:21;11.10;99.90
18733;DHT22;9495;51.210;2.934;2023-03-19T03:18:49;11.50;99.90
18733;DHT22;9495;51.210;2.934;2023-03-19T03:21:18;11.10;99.90
18733;DHT22;9495;51.210;2.934;2023-03-19T03:23:47;11.00;99.90
18733;DHT22;9495;51.210;2.934;2023-03-19T03:26:16;11.00;99.90
18733;DHT22;9495;51.210;2.934;2023-03-19T03:28:44;10.90;99.90
18733;DHT22;9495;51.210;2.934;2023-03-19T03:31:13;10.90;99.90
18733;DHT22;9495;51.210;2.934;2023-03-19T03:33:44;10.60;99.90
18733;DHT22;9495;51.210;2.934;2023-03-19T03:36:12;10.70;99.90
18733;DHT22;9495;51.210;2.934;2023-03-19T03:38:41;10.50;99.90
18733;DHT22;9495;51.210;2.934;2023-03-19T03:41:10;10.40;99.90
18733;DHT22;9495;51.210;2.934;2023-03-19T03:43:39;10.40;99.90
18733;DHT22;9495;51.210;2.934;2023-03-19T03:46:08;10.60;99.90
18733;DHT22;9495;51.210;2.934;2023-03-19T03:48:36;10.50;99.90
18733;DHT22;9495;51.210;2.934;2023-03-19T03:51:06;10.60;99.90
18733;DHT22;9495;51.210;2.934;2023-03-19T03:53:35;10.70;99.90
18733;DHT22;9495;51.210;2.934;2023-03-19T03:56:03;10.80;99.90
18733;DHT22;9495;51.210;2.934;2023-03-19T03:58:32;10.80;99.90
18733;DHT22;9495;51.210;2.934;2023-03-19T04:01:01;10.70;99.90
18733;DHT22;9495;51.210;2.934;2023-03-19T04:03:29;10.80;99.90
18733;DHT22;9495;51.210;2.934;2023-03-19T04:05:58;10.90;99.90
18733;DHT22;9495;51.210;2.934;2023-03-19T04:08:28;10.80;99.90
18733;DHT22;9495;51.210;2.934;2023-03-19T04:10:56;10.80;99.90
18733;DHT22;9495;51.210;2.934;2023-03-19T04:13:25;10.60;99.90
18733;DHT22;9495;51.210;2.934;2023-03-19T04:15:54;10.50;99.90
18733;DHT22;9495;51.210;2.934;2023-03-19T04:18:23;10.60;99.90
18733;DHT22;9495;51.210;2.934;2023-03-19T04:20:52;10.60;99.90
18733;DHT22;9495;51.210;2.934;2023-03-19T04:23:20;10.40;99.90
18733;DHT22;9495;51.210;2.934;2023-03-19T04:25:50;10.50;99.90
18733;DHT22;9495;51.210;2.934;2023-03-19T04:28:18;10.40;99.90
18733;DHT22;9495;51.210;2.934;2023-03-19T04:30:47;10.30;99.90
18733;DHT22;9495;51.210;2.934;2023-03-19T04:33:16;10.40;99.90
18733;DHT22;9495;51.210;2.934;2023-03-19T04:35:44;10.40;99.90
18733;DHT22;9495;51.210;2.934;2023-03-19T04:38:13;10.30;99.90
18733;DHT22;9495;51.210;2.934;2023-03-19T04:40:41;10.20;99.90
18733;DHT22;9495;51.210;2.934;2023-03-19T04:43:11;10.20;99.90
18733;DHT22;9495;51.210;2.934;2023-03-19T04:45:39;10.50;99.90
18733;DHT22;9495;51.210;2.934;2023-03-19T04:48:08;10.40;99.90
18733;DHT22;9495;51.210;2.934;2023-03-19T04:50:37;10.30;99.90
18733;DHT22;9495;51.210;2.934;2023-03-19T04:53:06;10.30;99.90
18733;DHT22;9495;51.210;2.934;2023-03-19T04:55:35;10.40;99.90
18733;DHT22;9495;51.210;2.934;2023-03-19T04:58:03;10.40;99.90
18733;DHT22;9495;51.210;2.934;2023-03-19T05:00:33;10.30;99.90
18733;DHT22;9495;51.210;2.934;2023-03-19T05:03:01;10.30;99.90
18733;DHT22;9495;51.210;2.934;2023-03-19T05:05:30;10.40;99.90
18733;DHT22;9495;51.210;2.934;2023-03-19T05:07:58;10.30;99.90
18733;DHT22;9495;51.210;2.934;2023-03-19T05:10:27;10.50;99.90
18733;DHT22;9495;51.210;2.934;2023-03-19T05:12:55;10.60;99.90
18733;DHT22;9495;51.210;2.934;2023-03-19T05:15:24;10.40;99.90
18733;DHT22;9495;51.210;2.934;2023-03-19T05:17:53;10.40;99.90
18733;DHT22;9495;51.210;2.934;2023-03-19T05:20:22;10.40;99.90
18733;DHT22;9495;51.210;2.934;2023-03-19T05:22:51;10.60;99.90
18733;DHT22;9495;51.210;2.934;2023-03-19T05:25:20;10.50;99.90
18733;DHT22;9495;51.210;2.934;2023-03-19T05:27:49;10.50;99.90
18733;DHT22;9495;51.210;2.934;2023-03-19T05:30:17;10.40;99.90
18733;DHT22;9495;51.210;2.934;2023-03-19T05:32:46;10.40;99.90
18733;DHT22;9495;51.210;2.934;2023-03-19T05:35:16;10.50;99.90
18733;DHT22;9495;51.210;2.934;2023-03-19T05:37:44;10.70;99.90
18733;DHT22;9495;51.210;2.934;2023-03-19T05:40:13;10.90;99.90
18733;DHT22;9495;51.210;2.934;2023-03-19T05:42:42;10.70;99.90
18733;DHT22;9495;51.210;2.934;2023-03-19T05:45:11;10.60;99.90
18733;DHT22;9495;51.210;2.934;2023-03-19T05:47:39;10.50;99.90
18733;DHT22;9495;51.210;2.934;2023-03-19T05:50:09;10.40;99.90
18733;DHT22;9495;51.210;2.934;2023-03-19T05:52:39;10.40;99.90
18733;DHT22;9495;51.210;2.934;2023-03-19T05:55:07;10.40;99.90
18733;DHT22;9495;51.210;2.934;2023-03-19T05:57:36;10.40;99.90
18733;DHT22;9495;51.210;2.934;2023-03-19T06:00:06;10.40;99.90
18733;DHT22;9495;51.210;2.934;2023-03-19T06:02:35;10.40;99.90
18733;DHT22;9495;51.210;2.934;2023-03-19T06:05:04;10.40;99.90
18733;DHT22;9495;51.210;2.934;2023-03-19T06:07:33;10.40;99.90
18733;DHT22;9495;51.210;2.934;2023-03-19T06:10:04;10.40;99.90
18733;DHT22;9495;51.210;2.934;2023-03-19T06:12:32;10.30;99.90
18733;DHT22;9495;51.210;2.934;2023-03-19T06:15:01;10.40;99.90
18733;DHT22;9495;51.210;2.934;2023-03-19T06:17:29;10.30;99.90
18733;DHT22;9495;51.210;2.934;2023-03-19T06:19:58;10.30;99.90
18733;DHT22;9495;51.210;2.934;2023-03-19T06:22:27;10.40;99.90
18733;DHT22;9495;51.210;2.934;2023-03-19T06:24:55;10.30;99.90
18733;DHT22;9495;51.210;2.934;2023-03-19T06:27:25;10.30;99.90
18733;DHT22;9495;51.210;2.934;2023-03-19T06:29:54;10.30;99.90
18733;DHT22;9495;51.210;2.934;2023-03-19T06:32:22;10.40;99.90
18733;DHT22;9495;51.210;2.934;2023-03-19T06:34:50;10.40;99.90
18733;DHT22;9495;51.210;2.934;2023-03-19T06:37:19;10.40;99.90
18733;DHT22;9495;51.210;2.934;2023-03-19T06:39:47;10.40;99.90
18733;DHT22;9495;51.210;2.934;2023-03-19T06:42:17;10.40;99.90
18733;DHT22;9495;51.210;2.934;2023-03-19T06:44:46;10.50;99.90
18733;DHT22;9495;51.210;2.934;2023-03-19T06:47:18;10.40;99.90
18733;DHT22;9495;51.210;2.934;2023-03-19T06:49:46;10.40;99.90
18733;DHT22;9495;51.210;2.934;2023-03-19T06:52:15;10.40;99.90
18733;DHT22;9495;51.210;2.934;2023-03-19T06:54:43;10.40;99.90
18733;DHT22;9495;51.210;2.934;2023-03-19T06:57:12;10.40;99.90
18733;DHT22;9495;51.210;2.934;2023-03-19T06:59:41;10.90;99.90
18733;DHT22;9495;51.210;2.934;2023-03-19T07:02:11;10.70;99.90
18733;DHT22;9495;51.210;2.934;2023-03-19T07:04:40;10.60;99.90
18733;DHT22;9495;51.210;2.934;2023-03-19T07:07:08;10.40;99.90
18733;DHT22;9495;51.210;2.934;2023-03-19T07:09:36;10.00;99.90
18733;DHT22;9495;51.210;2.934;2023-03-19T07:12:05;9.70;99.90
18733;DHT22;9495;51.210;2.934;2023-03-19T07:14:34;9.60;99.90
18733;DHT22;9495;51.210;2.934;2023-03-19T07:17:02;9.50;99.90
18733;DHT22;9495;51.210;2.934;2023-03-19T07:19:32;9.40;99.90
18733;DHT22;9495;51.210;2.934;2023-03-19T07:22:00;9.40;99.90
18733;DHT22;9495;51.210;2.934;2023-03-19T07:24:30;9.20;99.90
18733;DHT22;9495;51.210;2.934;2023-03-19T07:26:58;9.30;99.90
18733;DHT22;9495;51.210;2.934;2023-03-19T07:29:28;9.20;99.90
18733;DHT22;9495;51.210;2.934;2023-03-19T07:31:56;9.30;99.90
18733;DHT22;9495;51.210;2.934;2023-03-19T07:34:25;9.20;99.90
18733;DHT22;9495;51.210;2.934;2023-03-19T07:36:55;9.20;99.90
18733;DHT22;9495;51.210;2.934;2023-03-19T07:39:23;9.30;99.90
18733;DHT22;9495;51.210;2.934;2023-03-19T07:41:51;9.20;99.90
18733;DHT22;9495;51.210;2.934;2023-03-19T07:44:20;9.30;99.90
18733;DHT22;9495;51.210;2.934;2023-03-19T07:46:48;9.20;99.90
18733;DHT22;9495;51.210;2.934;2023-03-19T07:49:17;9.40;99.90
18733;DHT22;9495;51.210;2.934;2023-03-19T07:51:45;9.40;99.90
18733;DHT22;9495;51.210;2.934;2023-03-19T07:54:15;9.20;99.90
18733;DHT22;9495;51.210;2.934;2023-03-19T07:56:43;9.20;99.90
18733;DHT22;9495;51.210;2.934;2023-03-19T07:59:12;9.20;99.90
18733;DHT22;9495;51.210;2.934;2023-03-19T08:01:41;9.30;99.90
18733;DHT22;9495;51.210;2.934;2023-03-19T08:04:09;9.30;99.90
18733;DHT22;9495;51.210;2.934;2023-03-19T08:06:38;9.50;99.90
18733;DHT22;9495;51.210;2.934;2023-03-19T08:09:07;9.40;99.90
18733;DHT22;9495;51.210;2.934;2023-03-19T08:11:37;9.40;99.90
18733;DHT22;9495;51.210;2.934;2023-03-19T08:14:06;9.50;99.90
18733;DHT22;9495;51.210;2.934;2023-03-19T08:16:34;9.40;99.90
18733;DHT22;9495;51.210;2.934;2023-03-19T08:19:03;9.40;99.90
18733;DHT22;9495;51.210;2.934;2023-03-19T08:21:31;9.30;99.90
18733;DHT22;9495;51.210;2.934;2023-03-19T08:24:01;9.40;99.90
18733;DHT22;9495;51.210;2.934;2023-03-19T08:26:31;9.30;99.90
18733;DHT22;9495;51.210;2.934;2023-03-19T08:29:01;9.20;99.90
18733;DHT22;9495;51.210;2.934;2023-03-19T08:31:30;9.10;99.90
18733;DHT22;9495;51.210;2.934;2023-03-19T08:33:58;9.10;99.90
18733;DHT22;9495;51.210;2.934;2023-03-19T08:36:29;9.20;99.90
18733;DHT22;9495;51.210;2.934;2023-03-19T08:38:58;9.20;99.90
18733;DHT22;9495;51.210;2.934;2023-03-19T08:41:27;9.40;99.90
18733;DHT22;9495;51.210;2.934;2023-03-19T08:43:55;9.50;99.90
18733;DHT22;9495;51.210;2.934;2023-03-19T08:46:25;9.50;99.90
18733;DHT22;9495;51.210;2.934;2023-03-19T08:48:55;9.50;99.90
18733;DHT22;9495;51.210;2.934;2023-03-19T08:51:24;9.60;99.90
18733;DHT22;9495;51.210;2.934;2023-03-19T08:53:54;9.60;99.90
18733;DHT22;9495;51.210;2.934;2023-03-19T08:56:23;9.60;99.90
18733;DHT22;9495;51.210;2.934;2023-03-19T08:58:51;9.70;99.90
18733;DHT22;9495;51.210;2.934;2023-03-19T09:01:20;9.70;99.90
18733;DHT22;9495;51.210;2.934;2023-03-19T09:03:50;9.60;99.90
18733;DHT22;9495;51.210;2.934;2023-03-19T09:06:18;9.70;99.90
18733;DHT22;9495;51.210;2.934;2023-03-19T09:08:47;9.80;99.90
18733;DHT22;9495;51.210;2.934;2023-03-19T09:11:15;9.80;99.90
18733;DHT22;9495;51.210;2.934;2023-03-19T09:13:44;9.90;99.90
18733;DHT22;9495;51.210;2.934;2023-03-19T09:16:13;9.90;99.90
18733;DHT22;9495;51.210;2.934;2023-03-19T09:18:42;9.90;99.90
18733;DHT22;9495;51.210;2.934;2023-03-19T09:21:11;9.90;99.90
18733;DHT22;9495;51.210;2.934;2023-03-19T09:23:40;9.90;99.90
18733;DHT22;9495;51.210;2.934;2023-03-19T09:26:08;9.90;99.90
18733;DHT22;9495;51.210;2.934;2023-03-19T09:28:37;9.90;99.90
18733;DHT22;9495;51.210;2.934;2023-03-19T09:31:08;9.90;99.90
18733;DHT22;9495;51.210;2.934;2023-03-19T09:33:37;10.00;99.90
18733;DHT22;9495;51.210;2.934;2023-03-19T09:36:07;10.00;99.90
18733;DHT22;9495;51.210;2.934;2023-03-19T09:38:37;10.30;99.90
18733;DHT22;9495;51.210;2.934;2023-03-19T09:41:08;10.10;99.90
18733;DHT22;9495;51.210;2.934;2023-03-19T09:43:47;10.10;99.90
18733;DHT22;9495;51.210;2.934;2023-03-19T09:46:20;10.00;99.90
18733;DHT22;9495;51.210;2.934;2023-03-19T09:48:54;10.10;99.90
18733;DHT22;9495;51.210;2.934;2023-03-19T09:51:27;10.00;99.90
18733;DHT22;9495;51.210;2.934;2023-03-19T09:54:00;10.00;99.90
18733;DHT22;9495;51.210;2.934;2023-03-19T09:56:30;10.00;99.90
18733;DHT22;9495;51.210;2.934;2023-03-19T09:59:00;9.90;99.90
18733;DHT22;9495;51.210;2.934;2023-03-19T10:01:33;9.90;99.90
18733;DHT22;9495;51.210;2.934;2023-03-19T10:04:15;10.00;99.90
18733;DHT22;9495;51.210;2.934;2023-03-19T10:06:46;9.80;99.90
18733;DHT22;9495;51.210;2.934;2023-03-19T10:09:30;9.80;99.90
18733;DHT22;9495;51.210;2.934;2023-03-19T10:12:09;9.90;99.90
18733;DHT22;9495;51.210;2.934;2023-03-19T10:15:00;10.00;99.90
18733;DHT22;9495;51.210;2.934;2023-03-19T10:17:32;10.00;99.90
18733;DHT22;9495;51.210;2.934;2023-03-19T10:20:05;9.80;99.90
18733;DHT22;9495;51.210;2.934;2023-03-19T10:22:37;9.80;99.90
18733;DHT22;9495;51.210;2.934;2023-03-19T10:25:12;9.60;99.90
18733;DHT22;9495;51.210;2.934;2023-03-19T10:27:44;9.60;99.90
18733;DHT22;9495;51.210;2.934;2023-03-19T10:30:15;9.70;99.90
18733;DHT22;9495;51.210;2.934;2023-03-19T10:32:47;9.60;99.90
18733;DHT22;9495;51.210;2.934;2023-03-19T10:35:19;9.50;99.90
18733;DHT22;9495;51.210;2.934;2023-03-19T10:37:49;9.40;99.90
18733;DHT22;9495;51.210;2.934;2023-03-19T10:40:23;9.40;99.90
18733;DHT22;9495;51.210;2.934;2023-03-19T10:43:02;9.40;99.90
18733;DHT22;9495;51.210;2.934;2023-03-19T10:45:32;9.40;99.90
18733;DHT22;9495;51.210;2.934;2023-03-19T10:48:04;9.50;99.90
18733;DHT22;9495;51.210;2.934;2023-03-19T10:50:36;9.40;99.90
18733;DHT22;9495;51.210;2.934;2023-03-19T10:53:09;9.50;99.90
18733;DHT22;9495;51.210;2.934;2023-03-19T10:55:53;9.50;99.90
18733;DHT22;9495;51.210;2.934;2023-03-19T10:58:24;9.50;99.90
18733;DHT22;9495;51.210;2.934;2023-03-19T11:00:56;9.40;99.90
18733;DHT22;9495;51.210;2.934;2023-03-19T11:03:29;9.40;99.90
18733;DHT22;9495;51.210;2.934;2023-03-19T11:06:14;9.30;99.90
18733;DHT22;9495;51.210;2.934;2023-03-19T11:08:51;9.40;99.90
18733;DHT22;9495;51.210;2.934;2023-03-19T11:11:26;9.50;99.90
18733;DHT22;9495;51.210;2.934;2023-03-19T11:14:06;9.60;99.90
18733;DHT22;9495;51.210;2.934;2023-03-19T11:16:54;9.60;99.90
18733;DHT22;9495;51.210;2.934;2023-03-19T11:19:25;9.60;99.90
18733;DHT22;9495;51.210;2.934;2023-03-19T11:22:07;9.60;99.90
18733;DHT22;9495;51.210;2.934;2023-03-19T11:24:37;9.60;99.90
18733;DHT22;9495;51.210;2.934;2023-03-19T11:27:09;9.70;99.90
18733;DHT22;9495;51.210;2.934;2023-03-19T11:29:40;9.50;99.90
18733;DHT22;9495;51.210;2.934;2023-03-19T11:32:24;9.20;99.90
18733;DHT22;9495;51.210;2.934;2023-03-19T11:34:57;9.20;99.90
18733;DHT22;9495;51.210;2.934;2023-03-19T11:37:32;8.90;99.90
18733;DHT22;9495;51.210;2.934;2023-03-19T11:40:08;8.90;99.90
18733;DHT22;9495;51.210;2.934;2023-03-19T11:42:52;8.90;99.90
18733;DHT22;9495;51.210;2.934;2023-03-19T11:45:30;8.90;99.90
18733;DHT22;9495;51.210;2.934;2023-03-19T11:50:58;9.30;99.90
18733;DHT22;9495;51.210;2.934;2023-03-19T11:53:31;9.40;99.90
18733;DHT22;9495;51.210;2.934;2023-03-19T11:56:09;9.20;99.90
18733;DHT22;9495;51.210;2.934;2023-03-19T11:59:14;9.20;99.90
18733;DHT22;9495;51.210;2.934;2023-03-19T12:02:13;9.20;99.90
18733;DHT22;9495;51.210;2.934;2023-03-19T12:07:46;9.20;99.90
18733;DHT22;9495;51.210;2.934;2023-03-19T12:10:38;9.20;99.90
18733;DHT22;9495;51.210;2.934;2023-03-19T12:13:15;9.10;99.90
18733;DHT22;9495;51.210;2.934;2023-03-19T12:15:53;9.20;99.90
18733;DHT22;9495;51.210;2.934;2023-03-19T12:18:36;9.20;99.90
18733;DHT22;9495;51.210;2.934;2023-03-19T12:21:12;9.30;99.90
18733;DHT22;9495;51.210;2.934;2023-03-19T12:23:49;9.30;99.90
18733;DHT22;9495;51.210;2.934;2023-03-19T12:26:28;9.20;99.90
18733;DHT22;9495;51.210;2.934;2023-03-19T12:29:03;9.30;99.90
18733;DHT22;9495;51.210;2.934;2023-03-19T12:31:46;9.30;99.90
18733;DHT22;9495;51.210;2.934;2023-03-19T12:34:23;9.30;99.90
18733;DHT22;9495;51.210;2.934;2023-03-19T12:37:07;9.30;99.90
18733;DHT22;9495;51.210;2.934;2023-03-19T12:39:41;9.40;99.90
18733;DHT22;9495;51.210;2.934;2023-03-19T12:42:14;9.30;99.90
18733;DHT22;9495;51.210;2.934;2023-03-19T12:44:47;9.20;99.90
18733;DHT22;9495;51.210;2.934;2023-03-19T12:47:23;9.20;99.90
18733;DHT22;9495;51.210;2.934;2023-03-19T12:49:54;9.30;99.90
18733;DHT22;9495;51.210;2.934;2023-03-19T12:52:28;9.40;99.90
18733;DHT22;9495;51.210;2.934;2023-03-19T12:55:03;9.40;99.90
18733;DHT22;9495;51.210;2.934;2023-03-19T12:57:35;9.50;99.90
18733;DHT22;9495;51.210;2.934;2023-03-19T13:00:09;9.40;99.90
18733;DHT22;9495;51.210;2.934;2023-03-19T13:02:49;9.40;99.90
18733;DHT22;9495;51.210;2.934;2023-03-19T13:05:25;9.40;99.90
18733;DHT22;9495;51.210;2.934;2023-03-19T13:08:00;9.30;99.90
18733;DHT22;9495;51.210;2.934;2023-03-19T13:10:30;9.20;99.90
18733;DHT22;9495;51.210;2.934;2023-03-19T13:13:01;9.40;99.90
18733;DHT22;9495;51.210;2.934;2023-03-19T13:15:37;9.40;99.90
18733;DHT22;9495;51.210;2.934;2023-03-19T13:18:23;9.60;99.90
18733;DHT22;9495;51.210;2.934;2023-03-19T13:21:05;9.80;99.90
18733;DHT22;9495;51.210;2.934;2023-03-19T13:23:39;9.80;99.90
18733;DHT22;9495;51.210;2.934;2023-03-19T13:26:09;9.80;99.90
18733;DHT22;9495;51.210;2.934;2023-03-19T13:28:54;9.70;99.90
18733;DHT22;9495;51.210;2.934;2023-03-19T13:31:26;9.70;99.90
18733;DHT22;9495;51.210;2.934;2023-03-19T13:34:02;9.70;99.90
18733;DHT22;9495;51.210;2.934;2023-03-19T13:36:35;9.70;99.90
18733;DHT22;9495;51.210;2.934;2023-03-19T13:39:12;9.70;99.90
18733;DHT22;9495;51.210;2.934;2023-03-19T13:41:50;9.80;99.90
18733;DHT22;9495;51.210;2.934;2023-03-19T13:44:39;9.90;99.90
18733;DHT22;9495;51.210;2.934;2023-03-19T13:47:36;9.90;99.90
18733;DHT22;9495;51.210;2.934;2023-03-19T13:50:25;9.80;99.90
18733;DHT22;9495;51.210;2.934;2023-03-19T13:53:16;9.80;99.90
18733;DHT22;9495;51.210;2.934;2023-03-19T13:55:54;9.70;99.90
18733;DHT22;9495;51.210;2.934;2023-03-19T13:58:25;9.80;99.90
18733;DHT22;9495;51.210;2.934;2023-03-19T14:01:35;9.90;99.90
18733;DHT22;9495;51.210;2.934;2023-03-19T14:04:04;9.80;99.90
18733;DHT22;9495;51.210;2.934;2023-03-19T14:06:39;9.70;99.90
18733;DHT22;9495;51.210;2.934;2023-03-19T14:09:35;9.80;99.90
18733;DHT22;9495;51.210;2.934;2023-03-19T14:14:54;9.80;99.90
18733;DHT22;9495;51.210;2.934;2023-03-19T14:17:26;9.80;99.90
18733;DHT22;9495;51.210;2.934;2023-03-19T14:20:04;9.70;99.90
18733;DHT22;9495;51.210;2.934;2023-03-19T14:22:38;9.70;99.90
18733;DHT22;9495;51.210;2.934;2023-03-19T14:25:15;9.70;99.90
18733;DHT22;9495;51.210;2.934;2023-03-19T14:27:45;9.80;99.90
18733;DHT22;9495;51.210;2.934;2023-03-19T14:30:26;9.90;99.90
18733;DHT22;9495;51.210;2.934;2023-03-19T14:32:59;9.80;99.90
18733;DHT22;9495;51.210;2.934;2023-03-19T14:35:31;9.90;99.90
18733;DHT22;9495;51.210;2.934;2023-03-19T14:38:10;9.90;99.90
18733;DHT22;9495;51.210;2.934;2023-03-19T14:40:43;10.00;99.90
18733;DHT22;9495;51.210;2.934;2023-03-19T14:43:16;10.10;99.90
18733;DHT22;9495;51.210;2.934;2023-03-19T14:45:57;10.00;99.90
18733;DHT22;9495;51.210;2.934;2023-03-19T14:48:50;10.00;99.90
18733;DHT22;9495;51.210;2.934;2023-03-19T14:51:47;10.00;99.90
18733;DHT22;9495;51.210;2.934;2023-03-19T14:54:29;9.90;99.90
18733;DHT22;9495;51.210;2.934;2023-03-19T14:57:06;10.00;99.90
18733;DHT22;9495;51.210;2.934;2023-03-19T14:59:38;9.90;99.90
18733;DHT22;9495;51.210;2.934;2023-03-19T15:02:21;9.90;99.90
18733;DHT22;9495;51.210;2.934;2023-03-19T15:04:53;10.10;99.90
18733;DHT22;9495;51.210;2.934;2023-03-19T15:07:28;10.10;99.90
18733;DHT22;9495;51.210;2.934;2023-03-19T15:10:00;10.00;99.90
18733;DHT22;9495;51.210;2.934;2023-03-19T15:12:57;10.20;99.90
18733;DHT22;9495;51.210;2.934;2023-03-19T15:15:48;10.20;99.90
18733;DHT22;9495;51.210;2.934;2023-03-19T15:18:20;10.20;99.90
18733;DHT22;9495;51.210;2.934;2023-03-19T15:20:50;10.20;99.90
18733;DHT22;9495;51.210;2.934;2023-03-19T15:23:23;10.20;99.90
18733;DHT22;9495;51.210;2.934;2023-03-19T15:25:57;10.10;99.90
18733;DHT22;9495;51.210;2.934;2023-03-19T15:28:28;10.10;99.90
18733;DHT22;9495;51.210;2.934;2023-03-19T15:30:58;10.00;99.90
18733;DHT22;9495;51.210;2.934;2023-03-19T15:33:47;10.00;99.90
18733;DHT22;9495;51.210;2.934;2023-03-19T15:36:19;10.00;99.90
18733;DHT22;9495;51.210;2.934;2023-03-19T15:38:53;10.00;99.90
18733;DHT22;9495;51.210;2.934;2023-03-19T15:41:26;10.00;99.90
18733;DHT22;9495;51.210;2.934;2023-03-19T15:43:55;9.90;99.90
18733;DHT22;9495;51.210;2.934;2023-03-19T15:46:32;10.00;99.90
18733;DHT22;9495;51.210;2.934;2023-03-19T15:49:04;9.90;99.90
18733;DHT22;9495;51.210;2.934;2023-03-19T15:51:34;10.00;99.90
18733;DHT22;9495;51.210;2.934;2023-03-19T15:54:04;10.00;99.90
18733;DHT22;9495;51.210;2.934;2023-03-19T15:56:34;10.00;99.90
18733;DHT22;9495;51.210;2.934;2023-03-19T15:59:03;10.10;99.90
18733;DHT22;9495;51.210;2.934;2023-03-19T16:01:32;10.10;99.90
18733;DHT22;9495;51.210;2.934;2023-03-19T16:04:03;10.30;99.90
18733;DHT22;9495;51.210;2.934;2023-03-19T16:06:35;10.30;99.90
18733;DHT22;9495;51.210;2.934;2023-03-19T16:09:19;10.30;99.90
18733;DHT22;9495;51.210;2.934;2023-03-19T16:11:51;10.30;99.90
18733;DHT22;9495;51.210;2.934;2023-03-19T16:14:25;10.30;99.90
18733;DHT22;9495;51.210;2.934;2023-03-19T16:16:59;10.30;99.90
18733;DHT22;9495;51.210;2.934;2023-03-19T16:19:32;10.20;99.90
18733;DHT22;9495;51.210;2.934;2023-03-19T16:22:02;10.20;99.90
18733;DHT22;9495;51.210;2.934;2023-03-19T16:24:33;10.30;99.90
18733;DHT22;9495;51.210;2.934;2023-03-19T16:27:09;10.30;99.90
18733;DHT22;9495;51.210;2.934;2023-03-19T16:29:40;10.20;99.90
18733;DHT22;9495;51.210;2.934;2023-03-19T16:32:18;10.20;99.90